createdAt,value
2018-01-25T00:02:25.544Z,-0.40
2018-01-25T00:04:51.782Z,-0.40
2018-01-25T00:07:17.987Z,-0.40
2018-01-25T00:09:44.978Z,-0.40
2018-01-25T00:12:11.188Z,-0.40
2018-01-25T00:14:37.419Z,-0.30
2018-01-25T00:17:03.621Z,-0.30
2018-01-25T00:19:29.860Z,-0.40
2018-01-25T00:21:56.833Z,-0.40
2018-01-25T00:24:23.105Z,-0.50
2018-01-25T00:26:49.440Z,-0.60
2018-01-25T00:29:15.779Z,-0.70
2018-01-25T00:31:42.780Z,-0.70
2018-01-25T00:34:08.984Z,-0.70
2018-01-25T00:36:35.216Z,-0.60
2018-01-25T00:39:01.465Z,-0.60
2018-01-25T00:41:27.712Z,-0.80
2018-01-25T00:43:53.939Z,-0.80
2018-01-25T00:46:20.176Z,-0.90
2018-01-25T00:48:46.404Z,-0.80
2018-01-25T00:51:12.628Z,-0.80
2018-01-25T00:53:38.858Z,-0.80
2018-01-25T00:56:05.066Z,-0.90
2018-01-25T00:58:31.308Z,-1.00
2018-01-25T01:00:57.533Z,-1.00
2018-01-25T01:03:23.759Z,-0.90
2018-01-25T01:05:49.996Z,-0.90
2018-01-25T01:08:16.247Z,-0.90
2018-01-25T01:10:42.493Z,-0.90
2018-01-25T01:13:08.698Z,-1.00
2018-01-25T01:15:34.932Z,-1.00
2018-01-25T01:18:01.153Z,-0.90
2018-01-25T01:20:27.402Z,-0.90
2018-01-25T01:22:53.653Z,-0.60
2018-01-25T01:25:19.880Z,-0.40
2018-01-25T01:27:46.073Z,-0.40
2018-01-25T01:30:12.363Z,-0.30
2018-01-25T01:32:39.365Z,-0.30
2018-01-25T01:35:05.590Z,-0.30
2018-01-25T01:37:31.828Z,-0.20
2018-01-25T01:39:58.073Z,-0.10
2018-01-25T01:42:24.321Z,0.00
2018-01-25T01:44:51.263Z,0.10
2018-01-25T01:47:18.249Z,0.30
2018-01-25T01:49:44.488Z,0.20
2018-01-25T01:52:10.710Z,0.40
2018-01-25T01:54:36.941Z,0.40
2018-01-25T01:57:03.172Z,0.50
2018-01-25T01:59:29.401Z,0.50
2018-01-25T02:01:55.631Z,0.50
2018-01-25T02:04:21.864Z,0.50
2018-01-25T02:06:48.064Z,0.50
2018-01-25T02:09:15.025Z,0.50
2018-01-25T02:11:41.267Z,0.50
2018-01-25T02:14:07.492Z,0.50
2018-01-25T02:16:35.571Z,0.40
2018-01-25T02:19:02.687Z,0.50
2018-01-25T02:21:28.953Z,0.40
2018-01-25T02:23:55.161Z,0.30
2018-01-25T02:26:21.467Z,0.20
2018-01-25T02:28:47.721Z,0.30
2018-01-25T02:31:13.984Z,0.40
2018-01-25T02:33:40.195Z,0.30
2018-01-25T02:36:06.436Z,0.20
2018-01-25T02:38:32.640Z,0.20
2018-01-25T02:40:58.883Z,0.10
2018-01-25T02:43:25.127Z,0.00
2018-01-25T02:45:51.372Z,-0.10
2018-01-25T02:48:17.609Z,0.00
2018-01-25T02:50:43.859Z,0.00
2018-01-25T02:53:10.857Z,0.20
2018-01-25T02:55:37.140Z,0.10
2018-01-25T02:58:04.103Z,0.40
2018-01-25T03:00:31.077Z,0.40
2018-01-25T03:02:57.281Z,0.40
2018-01-25T03:05:24.245Z,0.40
2018-01-25T03:07:50.525Z,0.40
2018-01-25T03:10:16.826Z,0.50
2018-01-25T03:12:43.861Z,0.40
2018-01-25T03:15:10.065Z,0.40
2018-01-25T03:17:37.056Z,0.40
2018-01-25T03:20:03.306Z,0.40
2018-01-25T03:22:29.564Z,0.50
2018-01-25T03:24:55.790Z,0.70
2018-01-25T03:27:22.006Z,0.80
2018-01-25T03:29:48.225Z,0.70
2018-01-25T03:32:14.484Z,0.60
2018-01-25T03:34:40.679Z,0.60
2018-01-25T03:37:06.917Z,0.50
2018-01-25T03:39:33.140Z,0.50
2018-01-25T03:41:59.396Z,0.70
2018-01-25T03:44:25.647Z,0.60
2018-01-25T03:46:52.664Z,0.50
2018-01-25T03:49:18.884Z,0.40
2018-01-25T03:51:45.148Z,0.40
2018-01-25T03:54:12.116Z,0.40
2018-01-25T03:56:38.524Z,0.40
2018-01-25T03:59:05.463Z,0.50
2018-01-25T04:01:31.712Z,0.50
2018-01-25T04:03:57.949Z,0.60
2018-01-25T04:06:24.925Z,0.80
2018-01-25T04:08:51.151Z,0.70
2018-01-25T04:11:17.386Z,0.80
2018-01-25T04:13:43.596Z,0.90
2018-01-25T04:16:09.837Z,1.10
2018-01-25T04:18:36.144Z,1.10
2018-01-25T04:21:02.434Z,1.10
2018-01-25T04:23:28.677Z,1.00
2018-01-25T04:25:54.920Z,1.00
2018-01-25T04:28:21.156Z,0.90
2018-01-25T04:30:48.195Z,1.00
2018-01-25T04:33:14.438Z,0.90
2018-01-25T04:35:41.406Z,1.00
2018-01-25T04:38:07.685Z,0.90
2018-01-25T04:40:33.913Z,0.90
2018-01-25T04:43:00.190Z,0.90
2018-01-25T04:45:26.495Z,0.90
2018-01-25T04:47:52.760Z,0.80
2018-01-25T04:50:19.040Z,0.80
2018-01-25T04:52:45.341Z,0.70
2018-01-25T04:55:11.566Z,0.70
2018-01-25T04:57:37.818Z,0.70
2018-01-25T05:00:04.049Z,0.50
2018-01-25T05:02:30.300Z,0.30
2018-01-25T05:04:56.643Z,0.30
2018-01-25T05:07:23.820Z,0.30
2018-01-25T05:09:50.769Z,0.10
2018-01-25T05:12:17.736Z,0.20
2018-01-25T05:14:43.942Z,0.10
2018-01-25T05:20:08.673Z,0.20
2018-01-25T05:22:34.940Z,0.20
2018-01-25T05:25:01.201Z,0.10
2018-01-25T05:27:28.173Z,0.10
2018-01-25T05:29:54.436Z,0.10
2018-01-25T05:32:20.703Z,0.10
2018-01-25T05:34:47.009Z,0.00
2018-01-25T05:37:13.260Z,-0.10
2018-01-25T05:39:39.480Z,-0.10
2018-01-25T05:42:05.737Z,-0.10
2018-01-25T05:44:32.700Z,0.00
2018-01-25T05:46:59.673Z,0.00
2018-01-25T05:49:25.879Z,-0.10
2018-01-25T05:51:52.868Z,-0.10
2018-01-25T05:54:19.114Z,-0.20
2018-01-25T05:56:45.360Z,-0.20
2018-01-25T05:59:12.460Z,-0.20
2018-01-25T06:01:38.712Z,-0.30
2018-01-25T06:04:05.063Z,-0.30
2018-01-25T06:06:31.290Z,-0.40
2018-01-25T06:08:57.718Z,-0.40
2018-01-25T06:11:23.953Z,-0.50
2018-01-25T06:13:50.201Z,-0.50
2018-01-25T06:16:16.430Z,-0.40
2018-01-25T06:18:42.671Z,-0.40
2018-01-25T06:21:09.660Z,-0.30
2018-01-25T06:23:35.867Z,-0.30
2018-01-25T06:26:02.094Z,-0.20
2018-01-25T06:28:28.328Z,-0.40
2018-01-25T06:30:54.569Z,-0.60
2018-01-25T06:33:20.847Z,-0.70
2018-01-25T06:35:47.069Z,-0.80
2018-01-25T06:38:13.300Z,-0.80
2018-01-25T06:40:39.698Z,-0.90
2018-01-25T06:43:05.928Z,-1.00
2018-01-25T06:45:32.142Z,-0.80
2018-01-25T06:47:58.382Z,-0.60
2018-01-25T06:50:24.633Z,-0.50
2018-01-25T06:52:50.853Z,-0.40
2018-01-25T06:55:17.119Z,-0.30
2018-01-25T06:57:43.404Z,-0.30
2018-01-25T07:00:09.624Z,-0.20
2018-01-25T07:02:35.865Z,-0.20
2018-01-25T07:05:02.094Z,-0.10
2018-01-25T07:07:28.328Z,0.00
2018-01-25T07:09:54.580Z,0.10
2018-01-25T07:12:20.796Z,0.20
2018-01-25T07:14:47.072Z,0.30
2018-01-25T07:17:13.349Z,0.40
2018-01-25T07:19:39.574Z,0.70
2018-01-25T07:22:05.846Z,0.80
2018-01-25T07:24:32.120Z,0.90
2018-01-25T07:26:58.373Z,0.90
2018-01-25T07:29:24.621Z,1.10
2018-01-25T07:31:50.866Z,1.10
2018-01-25T07:34:23.975Z,1.20
2018-01-25T07:36:50.226Z,1.20
2018-01-25T07:39:17.205Z,1.60
2018-01-25T07:41:43.485Z,1.50
2018-01-25T07:44:09.740Z,1.60
2018-01-25T07:46:36.675Z,1.80
2018-01-25T07:49:03.657Z,1.90
2018-01-25T07:51:29.895Z,1.90
2018-01-25T07:53:56.118Z,2.00
2018-01-25T07:56:22.411Z,2.10
2018-01-25T07:58:49.396Z,2.30
2018-01-25T08:01:15.638Z,2.20
2018-01-25T08:03:41.893Z,2.30
2018-01-25T08:06:08.124Z,2.40
2018-01-25T08:08:34.353Z,2.50
2018-01-25T08:11:00.615Z,2.60
2018-01-25T08:13:33.582Z,2.80
2018-01-25T08:16:05.897Z,2.80
2018-01-25T08:18:32.154Z,2.90
2018-01-25T08:20:58.407Z,3.00
2018-01-25T08:23:24.626Z,3.10
2018-01-25T08:25:50.886Z,3.20
2018-01-25T08:28:17.893Z,3.40
2018-01-25T08:30:44.210Z,3.40
2018-01-25T08:33:10.462Z,3.60
2018-01-25T08:35:36.735Z,3.60
2018-01-25T08:38:03.724Z,3.80
2018-01-25T08:40:29.986Z,3.70
2018-01-25T08:42:56.253Z,3.90
2018-01-25T08:45:23.221Z,4.10
2018-01-25T08:47:49.470Z,4.10
2018-01-25T08:50:15.750Z,4.30
2018-01-25T08:52:42.704Z,4.50
2018-01-25T08:55:09.710Z,4.60
2018-01-25T08:57:35.939Z,4.50
2018-01-25T09:00:02.197Z,4.70
2018-01-25T09:02:28.423Z,4.80
2018-01-25T09:04:54.656Z,4.80
2018-01-25T09:07:20.872Z,4.90
2018-01-25T09:09:47.149Z,4.80
2018-01-25T09:12:13.407Z,4.90
2018-01-25T09:14:39.666Z,5.00
2018-01-25T09:17:06.141Z,5.10
2018-01-25T09:19:32.546Z,5.20
2018-01-25T09:21:59.669Z,5.50
2018-01-25T09:24:26.105Z,5.50
2018-01-25T09:26:52.513Z,5.70
2018-01-25T09:29:18.909Z,5.90
2018-01-25T09:31:46.083Z,6.10
2018-01-25T09:34:12.500Z,6.10
2018-01-25T09:36:38.878Z,6.20
2018-01-25T09:39:05.290Z,6.30
2018-01-25T09:41:31.710Z,6.30
2018-01-25T09:43:58.112Z,6.40
2018-01-25T09:46:25.385Z,6.50
2018-01-25T09:48:52.572Z,6.60
2018-01-25T09:51:19.072Z,6.60
2018-01-25T09:53:46.253Z,6.80
2018-01-25T09:56:12.622Z,6.70
2018-01-25T09:58:39.058Z,6.90
2018-01-25T10:01:05.505Z,6.90
2018-01-25T10:03:31.935Z,6.90
2018-01-25T10:05:59.118Z,7.10
2018-01-25T10:08:26.285Z,7.20
2018-01-25T10:10:52.748Z,7.10
2018-01-25T10:13:19.162Z,7.20
2018-01-25T10:15:45.610Z,7.30
2018-01-25T10:18:12.109Z,7.50
2018-01-25T10:20:39.264Z,7.70
2018-01-25T10:23:05.678Z,7.70
2018-01-25T10:25:32.123Z,7.90
2018-01-25T10:27:59.290Z,8.10
2018-01-25T10:30:25.748Z,8.10
2018-01-25T10:32:52.138Z,8.20
2018-01-25T10:35:19.309Z,8.60
2018-01-25T10:37:46.508Z,8.80
2018-01-25T10:40:13.031Z,8.70
2018-01-25T10:42:39.479Z,8.80
2018-01-25T10:45:05.887Z,8.80
2018-01-25T10:47:32.374Z,8.90
2018-01-25T10:49:58.773Z,9.00
2018-01-25T10:52:25.266Z,9.10
2018-01-25T10:54:52.407Z,9.40
2018-01-25T10:57:19.569Z,9.50
2018-01-25T10:59:46.744Z,9.70
2018-01-25T11:02:13.204Z,9.60
2018-01-25T11:04:39.653Z,9.80
2018-01-25T11:07:06.083Z,9.80
2018-01-25T11:09:32.494Z,9.90
2018-01-25T11:11:58.923Z,10.00
2018-01-25T11:14:25.330Z,10.10
2018-01-25T11:16:52.493Z,10.30
2018-01-25T11:19:19.008Z,10.20
2018-01-25T11:21:45.436Z,10.40
2018-01-25T11:24:11.882Z,10.40
2018-01-25T11:26:39.029Z,10.40
2018-01-25T11:29:05.461Z,10.40
2018-01-25T11:31:32.608Z,10.50
2018-01-25T11:33:59.030Z,10.50
2018-01-25T11:36:26.202Z,10.70
2018-01-25T11:38:53.322Z,10.80
2018-01-25T11:41:19.745Z,10.70
2018-01-25T11:43:46.175Z,10.80
2018-01-25T11:46:12.586Z,10.90
2018-01-25T11:48:39.000Z,11.10
2018-01-25T11:51:06.155Z,11.20
2018-01-25T11:53:32.724Z,11.20
2018-01-25T11:55:59.164Z,11.30
2018-01-25T11:58:25.575Z,11.30
2018-01-25T12:00:51.999Z,11.30
2018-01-25T12:03:18.515Z,11.40
2018-01-25T12:05:45.683Z,11.40
2018-01-25T12:08:12.875Z,11.50
2018-01-25T12:10:39.302Z,11.50
2018-01-25T12:13:05.702Z,11.60
2018-01-25T12:15:32.897Z,11.70
2018-01-25T12:17:59.420Z,11.60
2018-01-25T12:20:25.843Z,11.70
2018-01-25T12:22:52.269Z,11.70
2018-01-25T12:25:18.698Z,11.60
2018-01-25T12:27:45.850Z,11.40
2018-01-25T12:30:13.012Z,11.40
2018-01-25T12:32:39.437Z,11.40
2018-01-25T12:35:05.818Z,11.50
2018-01-25T12:37:32.277Z,11.50
2018-01-25T12:39:58.688Z,11.50
2018-01-25T12:42:25.108Z,11.60
2018-01-25T12:44:51.562Z,11.60
2018-01-25T12:47:17.985Z,11.60
2018-01-25T12:49:44.382Z,11.60
2018-01-25T12:52:10.802Z,11.60
2018-01-25T12:54:37.950Z,11.50
2018-01-25T12:57:05.123Z,11.50
2018-01-25T12:59:31.574Z,11.50
2018-01-25T13:01:57.981Z,11.60
2018-01-25T13:04:25.244Z,11.70
2018-01-25T13:06:51.700Z,11.60
2018-01-25T13:09:18.117Z,11.80
2018-01-25T13:11:44.571Z,11.90
2018-01-25T13:14:11.015Z,12.00
2018-01-25T13:16:37.542Z,12.10
2018-01-25T13:19:03.992Z,12.20
2018-01-25T13:21:30.408Z,12.20
2018-01-25T13:23:56.801Z,12.20
2018-01-25T13:26:23.971Z,12.20
2018-01-25T13:28:50.432Z,12.10
2018-01-25T13:31:16.825Z,12.10
2018-01-25T13:33:43.993Z,11.90
2018-01-25T13:36:11.180Z,11.90
2018-01-25T13:38:37.604Z,11.80
2018-01-25T13:41:04.051Z,11.80
2018-01-25T13:43:30.464Z,11.60
2018-01-25T13:45:57.017Z,11.50
2018-01-25T13:48:23.443Z,11.50
2018-01-25T13:50:49.880Z,11.50
2018-01-25T13:53:16.310Z,11.50
2018-01-25T13:55:42.770Z,11.40
2018-01-25T13:58:09.161Z,11.30
2018-01-25T14:00:35.584Z,11.30
2018-01-25T14:03:02.797Z,11.20
2018-01-25T14:05:29.229Z,11.10
2018-01-25T14:07:55.936Z,11.10
2018-01-25T14:10:24.657Z,11.00
2018-01-25T14:12:53.691Z,11.00
2018-01-25T14:15:20.528Z,10.90
2018-01-25T14:17:48.664Z,10.70
2018-01-25T14:20:15.441Z,10.70
2018-01-25T14:22:42.272Z,10.70
2018-01-25T14:25:08.944Z,10.60
2018-01-25T14:27:38.728Z,10.60
2018-01-25T14:30:05.200Z,10.50
2018-01-25T14:32:31.736Z,10.50
2018-01-25T14:34:58.239Z,10.50
2018-01-25T14:37:25.718Z,10.50
2018-01-25T14:39:52.399Z,10.50
2018-01-25T14:42:18.845Z,10.50
2018-01-25T14:44:45.411Z,10.40
2018-01-25T14:47:12.610Z,10.30
2018-01-25T14:49:39.354Z,10.30
2018-01-25T14:52:05.821Z,10.20
2018-01-25T14:54:32.282Z,10.10
2018-01-25T14:56:58.733Z,10.10
2018-01-25T14:59:25.927Z,9.90
2018-01-25T15:01:52.374Z,9.80
2018-01-25T15:04:18.838Z,9.80
2018-01-25T15:06:46.274Z,9.50
2018-01-25T15:09:12.747Z,9.40
2018-01-25T15:11:39.940Z,9.30
2018-01-25T15:14:06.374Z,9.20
2018-01-25T15:16:32.836Z,9.20
2018-01-25T15:18:59.365Z,9.10
2018-01-25T15:21:26.040Z,8.90
2018-01-25T15:23:53.525Z,8.70
2018-01-25T15:26:20.105Z,8.60
2018-01-25T15:28:46.548Z,8.60
2018-01-25T15:31:12.991Z,8.50
2018-01-25T15:33:39.406Z,8.40
2018-01-25T15:36:05.927Z,8.30
2018-01-25T15:38:32.341Z,8.40
2018-01-25T15:40:59.013Z,8.50
2018-01-25T15:43:25.435Z,8.50
2018-01-25T15:45:51.869Z,8.50
2018-01-25T15:48:18.497Z,8.30
2018-01-25T15:50:45.056Z,8.10
2018-01-25T15:53:11.510Z,8.20
2018-01-25T15:55:38.141Z,8.20
2018-01-25T15:58:04.724Z,8.10
2018-01-25T16:00:31.302Z,8.10
2018-01-25T16:02:57.897Z,7.90
2018-01-25T16:05:25.338Z,7.80
2018-01-25T16:07:51.824Z,7.70
2018-01-25T16:10:18.399Z,7.70
2018-01-25T16:12:44.942Z,7.50
2018-01-25T16:15:11.417Z,7.40
2018-01-25T16:17:38.005Z,7.20
2018-01-25T16:20:04.526Z,7.10
2018-01-25T16:22:33.202Z,6.90
2018-01-25T16:25:00.662Z,6.80
2018-01-25T16:27:28.445Z,6.70
2018-01-25T16:29:56.273Z,6.70
2018-01-25T16:32:22.739Z,6.70
2018-01-25T16:34:49.187Z,6.80
2018-01-25T16:37:15.903Z,6.90
2018-01-25T16:39:42.416Z,6.90
2018-01-25T16:42:08.922Z,6.70
2018-01-25T16:44:35.379Z,6.60
2018-01-25T16:47:02.662Z,6.40
2018-01-25T16:49:29.121Z,6.30
2018-01-25T16:51:55.545Z,6.30
2018-01-25T16:54:22.112Z,6.40
2018-01-25T16:56:49.310Z,6.50
2018-01-25T16:59:15.783Z,6.40
2018-01-25T17:01:42.208Z,6.40
2018-01-25T17:04:08.734Z,6.30
2018-01-25T17:06:35.383Z,6.30
2018-01-25T17:09:02.314Z,6.40
2018-01-25T17:11:28.774Z,6.50
2018-01-25T17:13:55.549Z,6.60
2018-01-25T17:16:22.964Z,6.70
2018-01-25T17:18:49.658Z,6.50
2018-01-25T17:21:17.287Z,6.40
2018-01-25T17:23:44.036Z,6.30
2018-01-25T17:26:11.570Z,6.00
2018-01-25T17:28:38.223Z,6.00
2018-01-25T17:31:04.791Z,5.80
2018-01-25T17:33:31.788Z,5.50
2018-01-25T17:35:58.289Z,5.20
2018-01-25T17:38:25.505Z,4.90
2018-01-25T17:40:52.429Z,4.80
2018-01-25T17:43:19.006Z,4.80
2018-01-25T17:45:45.465Z,4.60
2018-01-25T17:48:11.906Z,4.50
2018-01-25T17:50:38.322Z,4.40
2018-01-25T17:53:05.333Z,4.30
2018-01-25T17:55:31.880Z,4.20
2018-01-25T17:57:58.281Z,4.20
2018-01-25T18:00:24.742Z,4.20
2018-01-25T18:02:51.206Z,4.20
2018-01-25T18:05:18.406Z,4.10
2018-01-25T18:07:45.572Z,4.10
2018-01-25T18:10:12.418Z,4.10
2018-01-25T18:12:39.248Z,4.10
2018-01-25T18:15:05.824Z,4.10
2018-01-25T18:17:32.244Z,4.20
2018-01-25T18:19:58.659Z,4.10
2018-01-25T18:22:25.079Z,4.00
2018-01-25T18:24:51.619Z,4.00
2018-01-25T18:27:18.106Z,4.00
2018-01-25T18:29:44.594Z,3.90
2018-01-25T18:32:11.570Z,3.80
2018-01-25T18:34:38.522Z,3.80
2018-01-25T18:37:05.201Z,3.80
2018-01-25T18:39:32.497Z,3.80
2018-01-25T18:41:59.118Z,3.70
2018-01-25T18:44:25.582Z,3.90
2018-01-25T18:46:52.091Z,3.90
2018-01-25T18:49:18.491Z,4.00
2018-01-25T18:51:45.702Z,4.00
2018-01-25T18:54:12.133Z,3.90
2018-01-25T18:56:38.586Z,4.00
2018-01-25T18:59:05.042Z,4.00
2018-01-25T19:01:32.388Z,4.00
2018-01-25T19:03:59.541Z,4.00
2018-01-25T19:06:26.798Z,4.10
2018-01-25T19:08:54.006Z,4.10
2018-01-25T19:11:20.259Z,4.00
2018-01-25T19:13:46.500Z,3.90
2018-01-25T19:16:12.897Z,3.70
2018-01-25T19:18:39.321Z,3.60
2018-01-25T19:21:05.740Z,3.60
2018-01-25T19:23:32.622Z,3.60
2018-01-25T19:25:59.373Z,3.60
2018-01-25T19:28:25.887Z,3.70
2018-01-25T19:30:52.351Z,3.70
2018-01-25T19:33:18.871Z,3.70
2018-01-25T19:35:45.329Z,3.70
2018-01-25T19:38:11.829Z,3.70
2018-01-25T19:40:40.030Z,3.70
2018-01-25T19:43:08.162Z,3.70
2018-01-25T19:45:34.661Z,3.70
2018-01-25T19:48:03.564Z,3.60
2018-01-25T19:50:33.756Z,3.60
2018-01-25T19:53:01.010Z,3.60
2018-01-25T19:55:29.350Z,3.60
2018-01-25T19:57:55.799Z,3.60
2018-01-25T20:00:22.305Z,3.70
2018-01-25T20:02:49.542Z,3.60
2018-01-25T20:05:20.983Z,3.60
2018-01-25T20:07:47.539Z,3.60
2018-01-25T20:10:14.728Z,3.70
2018-01-25T20:12:41.139Z,3.60
2018-01-25T20:15:08.341Z,3.70
2018-01-25T20:17:34.788Z,3.60
2018-01-25T20:20:01.218Z,3.60
2018-01-25T20:22:27.682Z,3.60
2018-01-25T20:24:54.910Z,3.50
2018-01-25T20:27:21.330Z,3.40
2018-01-25T20:29:47.757Z,3.50
2018-01-25T20:32:14.205Z,3.50
2018-01-25T20:34:40.623Z,3.50
2018-01-25T20:37:07.179Z,3.50
2018-01-25T20:39:33.659Z,3.50
2018-01-25T20:42:00.076Z,3.50
2018-01-25T20:44:27.253Z,3.30
2018-01-25T20:46:53.817Z,3.30
2018-01-25T20:49:20.205Z,3.30
2018-01-25T20:51:47.211Z,3.30
2018-01-25T20:54:13.443Z,3.30
2018-01-25T20:56:39.688Z,3.40
2018-01-25T20:59:05.956Z,3.40
2018-01-25T21:01:33.036Z,3.50
2018-01-25T21:03:59.448Z,3.40
2018-01-25T21:06:25.724Z,3.50
2018-01-25T21:08:51.986Z,3.60
2018-01-25T21:11:18.249Z,3.60
2018-01-25T21:13:44.492Z,3.70
2018-01-25T21:16:10.746Z,3.70
2018-01-25T21:18:38.271Z,3.80
2018-01-25T21:21:05.321Z,3.80
2018-01-25T21:23:31.606Z,3.70
2018-01-25T21:25:57.911Z,3.70
2018-01-25T21:28:24.111Z,3.70
2018-01-25T21:30:50.396Z,3.60
2018-01-25T21:33:16.643Z,3.70
2018-01-25T21:35:43.628Z,3.70
2018-01-25T21:38:09.872Z,3.60
2018-01-25T21:40:36.158Z,3.60
2018-01-25T21:43:03.141Z,3.00
2018-01-25T21:45:29.484Z,2.90
2018-01-25T21:47:55.728Z,2.80
2018-01-25T21:50:21.981Z,2.80
2018-01-25T21:52:48.317Z,2.80
2018-01-25T21:55:14.568Z,2.80
2018-01-25T21:57:41.527Z,2.80
2018-01-25T22:00:07.861Z,2.80
2018-01-25T22:02:34.122Z,2.80
2018-01-25T22:05:00.391Z,2.90
2018-01-25T22:07:26.654Z,2.80
2018-01-25T22:09:52.912Z,2.80
2018-01-25T22:12:19.129Z,2.70
2018-01-25T22:14:45.417Z,2.70
2018-01-25T22:17:12.400Z,2.70
2018-01-25T22:19:38.619Z,2.70
2018-01-25T22:22:04.859Z,2.70
2018-01-25T22:24:31.154Z,2.80
2018-01-25T22:26:58.138Z,2.80
2018-01-25T22:29:24.385Z,2.80
2018-01-25T22:31:50.624Z,2.80
2018-01-25T22:34:16.992Z,2.90
2018-01-25T22:36:43.246Z,2.80
2018-01-25T22:39:10.264Z,2.70
2018-01-25T22:41:37.277Z,2.60
2018-01-25T22:44:03.493Z,2.60
2018-01-25T22:46:29.758Z,2.50
2018-01-25T22:48:55.992Z,2.50
2018-01-25T22:51:22.206Z,2.50
2018-01-25T22:53:48.445Z,2.50
2018-01-25T22:56:14.696Z,2.50
2018-01-25T22:58:40.895Z,2.60
2018-01-25T23:01:07.185Z,2.60
2018-01-25T23:03:33.428Z,2.70
2018-01-25T23:05:59.642Z,2.80
2018-01-25T23:08:26.648Z,2.90
2018-01-25T23:10:52.904Z,2.80
2018-01-25T23:13:19.152Z,2.90
2018-01-25T23:15:46.159Z,3.00
2018-01-25T23:18:12.421Z,3.00
2018-01-25T23:20:39.376Z,3.00
2018-01-25T23:23:05.611Z,3.00
2018-01-25T23:25:31.840Z,3.00
2018-01-25T23:27:58.081Z,3.00
2018-01-25T23:30:24.356Z,3.00
2018-01-25T23:32:50.607Z,3.00
2018-01-25T23:35:16.853Z,3.00
2018-01-25T23:37:43.830Z,2.70
2018-01-25T23:40:10.048Z,2.70
2018-01-25T23:42:36.320Z,2.70
2018-01-25T23:45:02.568Z,2.60
2018-01-25T23:47:28.831Z,2.60
2018-01-25T23:49:55.090Z,2.70
2018-01-25T23:52:21.332Z,2.70
2018-01-25T23:54:47.561Z,2.80
2018-01-25T23:57:13.828Z,2.70
2018-01-25T23:59:40.071Z,2.80
